createdAt,value
2023-02-12T00:01:24.757Z,156771.16
2023-02-12T00:03:52.606Z,156769.81
2023-02-12T00:06:20.356Z,156759.19
2023-02-12T00:08:52.888Z,156747.25
2023-02-12T00:11:23.390Z,156743.31
2023-02-12T00:13:51.272Z,156732.69
2023-02-12T00:16:22.123Z,156712.81
2023-02-12T00:18:52.526Z,156734.00
2023-02-12T00:21:21.310Z,156735.38
2023-02-12T00:23:48.925Z,156742.00
2023-02-12T00:26:18.856Z,156736.69
2023-02-12T00:28:49.780Z,156727.38
2023-02-12T00:31:21.392Z,156742.00
2023-02-12T00:33:49.052Z,156740.63
2023-02-12T00:36:19.923Z,156724.75
2023-02-12T00:38:47.993Z,156728.75
2023-02-12T00:41:15.995Z,156720.81
2023-02-12T00:43:43.254Z,156720.81
2023-02-12T00:46:11.317Z,156714.19
2023-02-12T00:48:38.700Z,156714.19
2023-02-12T00:51:06.801Z,156711.50
2023-02-12T00:53:34.209Z,156707.56
2023-02-12T00:56:02.176Z,156696.94
2023-02-12T00:58:29.750Z,156690.31
2023-02-12T01:00:57.325Z,156695.63
2023-02-12T01:03:24.820Z,156685.00
2023-02-12T01:05:54.015Z,156689.00
2023-02-12T01:08:22.160Z,156691.63
2023-02-12T01:10:59.923Z,156690.31
2023-02-12T01:13:30.549Z,156682.38
2023-02-12T01:16:08.285Z,156678.38
2023-02-12T01:18:37.156Z,156694.31
2023-02-12T01:21:16.330Z,156690.31
2023-02-12T01:23:45.129Z,156694.31
2023-02-12T01:26:13.867Z,156703.56
2023-02-12T01:28:42.876Z,156683.69
2023-02-12T01:31:16.156Z,156700.94
2023-02-12T01:33:43.656Z,156691.63
2023-02-12T01:36:12.011Z,156678.38
2023-02-12T01:38:39.263Z,156681.06
2023-02-12T01:41:12.830Z,156678.38
2023-02-12T01:43:40.692Z,156691.63
2023-02-12T01:46:10.606Z,156685.00
2023-02-12T01:48:40.774Z,156687.69
2023-02-12T01:51:11.580Z,156686.38
2023-02-12T01:53:44.478Z,156685.00
2023-02-12T01:56:12.108Z,156674.44
2023-02-12T01:58:42.077Z,156696.94
2023-02-12T02:01:19.100Z,156693.00
2023-02-12T02:03:48.656Z,156695.63
2023-02-12T02:06:29.325Z,156695.63
2023-02-12T02:08:57.090Z,156695.63
2023-02-12T02:11:43.366Z,156686.38
2023-02-12T02:14:29.505Z,156693.00
2023-02-12T02:17:28.495Z,156678.38
2023-02-12T02:20:17.294Z,156681.06
2023-02-12T02:22:50.994Z,156671.78
2023-02-12T02:25:49.255Z,156671.78
2023-02-12T02:28:54.266Z,156658.53
2023-02-12T02:31:55.025Z,156662.50
2023-02-12T02:35:00.381Z,156646.63
2023-02-12T02:37:33.007Z,156647.94
2023-02-12T02:40:15.328Z,156653.25
2023-02-12T02:42:46.537Z,156659.88
2023-02-12T02:45:22.996Z,156643.97
2023-02-12T02:47:58.647Z,156653.25
2023-02-12T02:50:28.974Z,156659.88
2023-02-12T02:53:05.779Z,156654.56
2023-02-12T02:55:38.975Z,156658.53
2023-02-12T02:58:21.744Z,156655.88
2023-02-12T03:00:59.717Z,156649.25
2023-02-12T03:03:37.212Z,156653.25
2023-02-12T03:06:09.687Z,156651.91
2023-02-12T03:08:42.393Z,156651.91
2023-02-12T03:11:15.775Z,156661.19
2023-02-12T03:13:47.648Z,156654.56
2023-02-12T03:17:06.312Z,156653.25
2023-02-12T03:19:51.427Z,156649.25
2023-02-12T03:22:23.247Z,156640.00
2023-02-12T03:24:54.767Z,156649.25
2023-02-12T03:27:48.815Z,156642.63
2023-02-12T03:30:16.378Z,156640.00
2023-02-12T03:32:44.114Z,156640.00
2023-02-12T03:35:34.822Z,156651.91
2023-02-12T03:38:24.023Z,156653.25
2023-02-12T03:40:54.842Z,156661.19
2023-02-12T03:43:44.468Z,156628.06
2023-02-12T03:46:19.430Z,156640.00
2023-02-12T03:48:59.645Z,156633.38
2023-02-12T03:51:36.009Z,156640.00
2023-02-12T03:54:05.205Z,156591.00
2023-02-12T03:56:36.937Z,156605.56
2023-02-12T03:59:05.820Z,156602.91
2023-02-12T04:01:34.777Z,156594.97
2023-02-12T04:04:04.763Z,156594.97
2023-02-12T04:06:32.236Z,156598.94
2023-02-12T04:09:03.908Z,156577.75
2023-02-12T04:11:57.397Z,156584.38
2023-02-12T04:14:43.932Z,156592.31
2023-02-12T04:17:40.701Z,156575.09
2023-02-12T04:20:30.098Z,156594.97
2023-02-12T04:23:13.968Z,156551.25
2023-02-12T04:25:57.942Z,156565.81
2023-02-12T04:28:44.092Z,156572.44
2023-02-12T04:31:32.357Z,156565.81
2023-02-12T04:34:31.428Z,156539.38
2023-02-12T04:37:18.710Z,156532.75
2023-02-12T04:39:46.595Z,156556.56
2023-02-12T04:42:14.342Z,156530.06
2023-02-12T04:44:43.471Z,156526.13
2023-02-12T04:47:15.307Z,156519.50
2023-02-12T04:49:43.057Z,156514.19
2023-02-12T04:52:10.693Z,156512.88
2023-02-12T04:54:38.201Z,156507.56
2023-02-12T04:57:06.880Z,156494.31
2023-02-12T04:59:34.572Z,156497.00
2023-02-12T05:02:02.535Z,156498.31
2023-02-12T05:04:29.794Z,156503.56
2023-02-12T05:06:57.293Z,156500.94
2023-02-12T05:09:24.506Z,156499.63
2023-02-12T05:11:52.219Z,156497.00
2023-02-12T05:14:19.580Z,156491.69
2023-02-12T05:16:47.219Z,156506.25
2023-02-12T05:19:14.449Z,156510.19
2023-02-12T05:21:42.003Z,156514.19
2023-02-12T05:24:09.636Z,156507.56
2023-02-12T05:26:37.425Z,156507.56
2023-02-12T05:29:04.800Z,156542.00
2023-02-12T05:31:32.903Z,156512.88
2023-02-12T05:34:00.165Z,156506.25
2023-02-12T05:36:27.905Z,156515.50
2023-02-12T05:38:59.299Z,156502.25
2023-02-12T05:41:27.237Z,156504.94
2023-02-12T05:43:54.792Z,156508.88
2023-02-12T05:46:22.990Z,156498.31
2023-02-12T05:48:50.384Z,156512.88
2023-02-12T05:51:25.405Z,156511.56
2023-02-12T05:53:57.302Z,156514.19
2023-02-12T05:56:26.984Z,156512.88
2023-02-12T05:58:56.980Z,156487.72
2023-02-12T06:01:30.652Z,156508.88
2023-02-12T06:03:59.533Z,156502.25
2023-02-12T06:06:27.988Z,156518.19
2023-02-12T06:08:56.100Z,156528.75
2023-02-12T06:11:23.932Z,156542.00
2023-02-12T06:13:51.927Z,156535.38
2023-02-12T06:16:25.356Z,156524.81
2023-02-12T06:18:54.428Z,156522.13
2023-02-12T06:21:23.561Z,156538.00
2023-02-12T06:23:50.979Z,156547.31
2023-02-12T06:26:19.276Z,156571.13
2023-02-12T06:28:46.775Z,156579.06
2023-02-12T06:31:35.237Z,156572.44
2023-02-12T06:34:06.081Z,156565.81
2023-02-12T06:36:34.166Z,156561.88
2023-02-12T06:39:03.039Z,156559.19
2023-02-12T06:41:30.977Z,156552.56
2023-02-12T06:43:58.287Z,156528.75
2023-02-12T06:46:26.480Z,156511.56
2023-02-12T06:48:59.700Z,156511.56
2023-02-12T06:51:29.118Z,156503.56
2023-02-12T06:53:56.724Z,156506.25
2023-02-12T06:56:25.546Z,156489.03
2023-02-12T06:58:55.911Z,156499.63
2023-02-12T07:01:26.447Z,156499.63
2023-02-12T07:03:56.771Z,156510.19
2023-02-12T07:06:26.105Z,156508.88
2023-02-12T07:08:54.961Z,156523.44
2023-02-12T07:11:30.601Z,156512.88
2023-02-12T07:13:58.340Z,156518.19
2023-02-12T07:16:26.855Z,156542.00
2023-02-12T07:18:54.543Z,156546.00
2023-02-12T07:21:22.068Z,156581.72
2023-02-12T07:23:51.729Z,156606.88
2023-02-12T07:26:20.990Z,156629.38
2023-02-12T07:28:49.009Z,156661.19
2023-02-12T07:31:22.073Z,156679.75
2023-02-12T07:33:50.261Z,156712.81
2023-02-12T07:36:19.223Z,156735.38
2023-02-12T07:38:47.123Z,156772.47
2023-02-12T07:41:23.463Z,156817.50
2023-02-12T07:43:58.201Z,156873.16
2023-02-12T07:46:31.436Z,156891.72
2023-02-12T07:49:00.475Z,156948.72
2023-02-12T07:51:28.451Z,156992.44
2023-02-12T07:53:56.260Z,157069.34
2023-02-12T07:56:26.083Z,157109.16
2023-02-12T07:58:54.208Z,157119.78
2023-02-12T08:01:24.081Z,157180.78
2023-02-12T08:03:51.782Z,157211.31
2023-02-12T08:06:27.769Z,157240.50
2023-02-12T08:08:57.815Z,157263.03
2023-02-12T08:11:26.614Z,157292.22
2023-02-12T08:13:54.258Z,157286.91
2023-02-12T08:16:23.919Z,157305.50
2023-02-12T08:18:52.002Z,157337.38
2023-02-12T08:21:25.777Z,157338.69
2023-02-12T08:23:57.330Z,157269.69
2023-02-12T08:26:30.084Z,157255.09
2023-02-12T08:29:04.703Z,157257.72
2023-02-12T08:31:39.113Z,157305.50
2023-02-12T08:34:06.677Z,157363.88
2023-02-12T08:36:39.057Z,157370.53
2023-02-12T08:39:08.372Z,157419.63
2023-02-12T08:41:36.455Z,157467.44
2023-02-12T08:44:05.376Z,157446.19
2023-02-12T08:46:38.715Z,157418.31
2023-02-12T08:49:07.500Z,157440.88
2023-02-12T08:51:38.718Z,157494.00
2023-02-12T08:54:09.811Z,157504.66
2023-02-12T08:56:37.559Z,157555.09
2023-02-12T08:59:06.330Z,157593.59
2023-02-12T09:01:35.942Z,157609.50
2023-02-12T09:04:03.212Z,157637.41
2023-02-12T09:06:32.454Z,157630.81
2023-02-12T09:08:59.641Z,157646.75
2023-02-12T09:11:32.148Z,157674.63
2023-02-12T09:14:01.709Z,157706.50
2023-02-12T09:16:30.893Z,157715.84
2023-02-12T09:18:58.633Z,157807.53
2023-02-12T09:21:26.902Z,157879.28
2023-02-12T09:23:54.241Z,157963.03
2023-02-12T09:26:23.769Z,158026.84
2023-02-12T09:28:51.535Z,158038.84
2023-02-12T09:31:29.262Z,158147.94
2023-02-12T09:34:05.611Z,158211.78
2023-02-12T09:36:33.798Z,158257.06
2023-02-12T09:39:01.047Z,158387.44
2023-02-12T09:41:53.617Z,158434.06
2023-02-12T09:44:33.168Z,158524.63
2023-02-12T09:47:04.454Z,158601.84
2023-02-12T09:49:50.917Z,158675.09
2023-02-12T09:52:22.508Z,158679.13
2023-02-12T09:54:51.077Z,158499.28
2023-02-12T09:57:24.430Z,158395.44
2023-02-12T09:59:55.089Z,158237.09
2023-02-12T10:02:23.325Z,158090.69
2023-02-12T10:05:01.131Z,157945.72
2023-02-12T10:08:03.826Z,157815.47
2023-02-12T10:11:07.000Z,157719.78
2023-02-12T10:13:54.101Z,157661.34
2023-02-12T10:16:30.547Z,157613.53
2023-02-12T10:18:58.293Z,157586.94
2023-02-12T10:21:47.380Z,157537.81
2023-02-12T10:24:40.037Z,157527.22
2023-02-12T10:27:16.375Z,157498.00
2023-02-12T10:29:46.521Z,157504.66
2023-02-12T10:32:26.445Z,157545.78
2023-02-12T10:34:54.411Z,157565.69
2023-02-12T10:37:32.641Z,157565.69
2023-02-12T10:40:05.701Z,157472.75
2023-02-12T10:42:39.353Z,157499.31
2023-02-12T10:45:14.177Z,157529.84
2023-02-12T10:47:41.612Z,157525.91
2023-02-12T10:50:20.596Z,157605.56
2023-02-12T10:52:57.139Z,157610.88
2023-02-12T10:55:35.236Z,157613.53
2023-02-12T10:58:04.344Z,157569.72
2023-02-12T11:00:37.025Z,157521.88
2023-02-12T11:03:07.556Z,157482.03
2023-02-12T11:05:36.646Z,157462.13
2023-02-12T11:08:04.265Z,157470.13
2023-02-12T11:10:40.424Z,157544.44
2023-02-12T11:13:27.471Z,157556.41
2023-02-12T11:15:55.814Z,157536.50
2023-02-12T11:18:29.240Z,157496.63
2023-02-12T11:21:11.027Z,157519.25
2023-02-12T11:23:41.047Z,157565.69
2023-02-12T11:26:20.871Z,157553.78
2023-02-12T11:29:01.173Z,157571.03
2023-02-12T11:31:33.927Z,157600.22
2023-02-12T11:34:19.020Z,157658.66
2023-02-12T11:36:49.790Z,157665.31
2023-02-12T11:39:36.492Z,157693.22
2023-02-12T11:42:14.855Z,157664.00
2023-02-12T11:44:48.613Z,157664.00
2023-02-12T11:47:22.263Z,157678.59
2023-02-12T11:49:56.255Z,157642.72
2023-02-12T11:52:27.122Z,157622.81
2023-02-12T11:54:59.123Z,157656.03
2023-02-12T11:57:48.253Z,157698.53
2023-02-12T12:00:36.315Z,157668.00
2023-02-12T12:03:30.158Z,157699.84
2023-02-12T12:06:16.270Z,157697.22
2023-02-12T12:08:49.235Z,157742.38
2023-02-12T12:11:23.871Z,157713.13
2023-02-12T12:14:00.306Z,157713.13
2023-02-12T12:17:19.102Z,157739.72
2023-02-12T12:19:57.395Z,157698.53
2023-02-12T12:22:51.792Z,157737.09
2023-02-12T12:25:31.231Z,157687.94
2023-02-12T12:28:29.190Z,157668.00
2023-02-12T12:30:56.975Z,157666.69
2023-02-12T12:33:38.046Z,157632.13
2023-02-12T12:36:14.924Z,157618.84
2023-02-12T12:39:03.812Z,157590.94
2023-02-12T12:41:37.315Z,157600.22
2023-02-12T12:44:26.137Z,157608.19
2023-02-12T12:47:31.402Z,157624.16
2023-02-12T12:50:24.218Z,157629.44
2023-02-12T12:52:51.866Z,157671.94
2023-02-12T12:55:27.978Z,157650.69
2023-02-12T12:58:21.801Z,157657.34
2023-02-12T13:01:20.490Z,157669.31
2023-02-12T13:04:26.269Z,157701.22
2023-02-12T13:06:57.586Z,157727.75
2023-02-12T13:09:25.173Z,157706.50
2023-02-12T13:11:58.542Z,157683.91
2023-02-12T13:14:51.079Z,157674.63
2023-02-12T13:18:02.476Z,157671.94
2023-02-12T13:20:46.077Z,157687.94
2023-02-12T13:23:22.518Z,157669.31
2023-02-12T13:26:01.972Z,157637.41
2023-02-12T13:28:39.465Z,157645.41
2023-02-12T13:31:33.381Z,157600.22
2023-02-12T13:34:05.052Z,157584.31
2023-02-12T13:36:33.734Z,157592.28
2023-02-12T13:39:22.846Z,157589.63
2023-02-12T13:42:09.401Z,157519.25
2023-02-12T13:44:51.578Z,157532.47
2023-02-12T13:47:37.786Z,157504.66
2023-02-12T13:50:26.575Z,157488.69
2023-02-12T13:53:00.344Z,157474.06
2023-02-12T13:55:38.784Z,157439.56
2023-02-12T13:58:40.303Z,157439.56
2023-02-12T14:01:11.437Z,157455.53
2023-02-12T14:03:39.503Z,157447.50
2023-02-12T14:06:21.229Z,157452.84
2023-02-12T14:08:52.962Z,157424.97
2023-02-12T14:11:23.035Z,157405.03
2023-02-12T14:14:05.045Z,157409.03
2023-02-12T14:16:32.216Z,157377.16
2023-02-12T14:19:37.767Z,157355.94
2023-02-12T14:22:26.848Z,157338.69
2023-02-12T14:24:58.916Z,157294.91
2023-02-12T14:27:52.516Z,157286.91
2023-02-12T14:30:26.119Z,157272.31
2023-02-12T14:32:58.252Z,157264.34
2023-02-12T14:35:40.582Z,157251.09
2023-02-12T14:38:18.256Z,157211.31
2023-02-12T14:40:50.603Z,157188.72
2023-02-12T14:44:02.003Z,157196.72
2023-02-12T14:46:29.824Z,157174.13
2023-02-12T14:49:01.005Z,157180.78
2023-02-12T14:51:51.802Z,157162.25
2023-02-12T14:54:29.356Z,157150.28
2023-02-12T14:57:01.651Z,157125.06
2023-02-12T14:59:32.878Z,157115.78
2023-02-12T15:02:01.959Z,157083.94
2023-02-12T15:04:32.764Z,157053.47
2023-02-12T15:07:20.738Z,157036.25
2023-02-12T15:09:52.803Z,157026.94
2023-02-12T15:12:26.811Z,157005.72
2023-02-12T15:15:06.805Z,157008.41
2023-02-12T15:17:39.413Z,156977.88
2023-02-12T15:20:32.510Z,156965.97
2023-02-12T15:23:00.113Z,156956.66
2023-02-12T15:25:29.551Z,156932.81
2023-02-12T15:28:05.219Z,156938.13
2023-02-12T15:30:35.043Z,156936.78
2023-02-12T15:33:07.126Z,156911.59
2023-02-12T15:35:40.362Z,156897.03
2023-02-12T15:38:10.835Z,156904.97
2023-02-12T15:40:38.129Z,156889.09
2023-02-12T15:43:07.260Z,156851.94
2023-02-12T15:45:36.683Z,156830.75
2023-02-12T15:48:12.673Z,156848.00
2023-02-12T15:50:50.299Z,156841.38
2023-02-12T15:53:18.426Z,156820.16
2023-02-12T15:55:47.380Z,156834.75
2023-02-12T15:58:39.265Z,156822.78
2023-02-12T16:01:07.177Z,156818.84
2023-02-12T16:03:37.294Z,156810.84
2023-02-12T16:06:11.703Z,156810.84
2023-02-12T16:08:40.738Z,156809.53
2023-02-12T16:11:15.107Z,156788.34
2023-02-12T16:13:49.385Z,156760.50
2023-02-12T16:16:29.243Z,156753.88
2023-02-12T16:19:05.795Z,156739.31
2023-02-12T16:21:35.260Z,156731.38
2023-02-12T16:24:03.579Z,156715.50
2023-02-12T16:26:30.924Z,156696.94
2023-02-12T16:28:58.969Z,156682.38
2023-02-12T16:31:28.101Z,156682.38
2023-02-12T16:33:59.390Z,156674.44
2023-02-12T16:36:32.076Z,156665.16
2023-02-12T16:39:02.803Z,156655.88
2023-02-12T16:41:35.635Z,156640.00
2023-02-12T16:44:03.325Z,156633.38
2023-02-12T16:46:33.517Z,156626.75
2023-02-12T16:49:02.676Z,156618.78
2023-02-12T16:51:35.189Z,156609.53
2023-02-12T16:54:05.301Z,156598.94
2023-02-12T16:56:38.094Z,156589.69
2023-02-12T16:59:05.871Z,156585.69
2023-02-12T17:01:36.466Z,156576.44
2023-02-12T17:04:12.355Z,156569.81
2023-02-12T17:06:39.774Z,156571.13
2023-02-12T17:09:07.424Z,156556.56
2023-02-12T17:11:36.703Z,156556.56
2023-02-12T17:14:04.754Z,156551.25
2023-02-12T17:16:32.635Z,156553.94
2023-02-12T17:19:01.301Z,156547.31
2023-02-12T17:21:38.170Z,156535.38
2023-02-12T17:24:22.050Z,156543.31
2023-02-12T17:26:51.131Z,156543.31
2023-02-12T17:29:20.354Z,156528.75
2023-02-12T17:31:48.355Z,156534.06
2023-02-12T17:34:16.852Z,156523.44
2023-02-12T17:36:44.657Z,156519.50
2023-02-12T17:39:14.304Z,156510.19
2023-02-12T17:41:42.292Z,156515.50
2023-02-12T17:44:12.126Z,156518.19
2023-02-12T17:46:39.723Z,156528.75
2023-02-12T17:49:07.426Z,156557.88
2023-02-12T17:51:35.287Z,156555.25
2023-02-12T17:54:03.587Z,156551.25
2023-02-12T17:56:31.248Z,156594.97
2023-02-12T17:58:59.004Z,156591.00
2023-02-12T18:01:26.610Z,156610.84
2023-02-12T18:03:57.098Z,156638.66
2023-02-12T18:06:26.935Z,156642.63
2023-02-12T18:08:56.885Z,156670.44
2023-02-12T18:11:24.780Z,156682.38
2023-02-12T18:13:54.194Z,156702.25
2023-02-12T18:16:22.476Z,156687.69
2023-02-12T18:18:51.135Z,156715.50
2023-02-12T18:21:18.741Z,156719.44
2023-02-12T18:23:46.449Z,156743.31
2023-02-12T18:26:16.592Z,156743.31
2023-02-12T18:28:44.542Z,156748.63
2023-02-12T18:31:12.672Z,156759.19
2023-02-12T18:33:40.650Z,156775.09
2023-02-12T18:36:11.821Z,156783.03
2023-02-12T18:38:40.822Z,156788.34
2023-02-12T18:41:13.182Z,156804.22
2023-02-12T18:43:42.505Z,156809.53
2023-02-12T18:46:14.911Z,156817.50
2023-02-12T18:48:43.056Z,156825.47
2023-02-12T18:51:13.545Z,156825.47
2023-02-12T18:53:41.360Z,156845.31
2023-02-12T18:56:10.516Z,156840.06
2023-02-12T18:58:38.541Z,156821.47
2023-02-12T19:01:20.032Z,156836.06
2023-02-12T19:03:51.099Z,156859.88
2023-02-12T19:06:18.524Z,156853.25
2023-02-12T19:08:46.266Z,156870.53
2023-02-12T19:11:15.711Z,156900.97
2023-02-12T19:13:43.608Z,156902.34
2023-02-12T19:16:13.722Z,156899.66
2023-02-12T19:18:41.833Z,156902.34
2023-02-12T19:21:11.616Z,156926.19
2023-02-12T19:23:39.523Z,156915.56
2023-02-12T19:26:11.667Z,156924.88
2023-02-12T19:28:39.686Z,156926.19
2023-02-12T19:31:34.854Z,156920.88
2023-02-12T19:34:09.653Z,156957.97
2023-02-12T19:36:37.445Z,156960.66
2023-02-12T19:39:06.162Z,156959.34
2023-02-12T19:41:41.099Z,156976.56
2023-02-12T19:44:15.606Z,156976.56
2023-02-12T19:46:44.215Z,156983.19
2023-02-12T19:49:18.504Z,156987.19
2023-02-12T19:51:46.554Z,156997.75
2023-02-12T19:54:15.639Z,156989.81
2023-02-12T19:56:43.718Z,157000.44
2023-02-12T19:59:14.686Z,157016.34
2023-02-12T20:01:42.126Z,156995.13
2023-02-12T20:04:15.207Z,157015.03
2023-02-12T20:06:43.629Z,157022.97
2023-02-12T20:09:12.168Z,157040.19
2023-02-12T20:11:40.069Z,157042.88
2023-02-12T20:14:10.399Z,157052.13
2023-02-12T20:16:39.308Z,157069.34
2023-02-12T20:19:10.011Z,157040.19
2023-02-12T20:21:37.428Z,157058.78
2023-02-12T20:24:05.304Z,157073.34
2023-02-12T20:26:33.616Z,157065.41
2023-02-12T20:29:04.815Z,157085.31
2023-02-12T20:31:36.096Z,157087.94
2023-02-12T20:34:07.160Z,157093.25
2023-02-12T20:36:37.588Z,157085.31
2023-02-12T20:39:08.502Z,157093.25
2023-02-12T20:41:37.461Z,157101.22
2023-02-12T20:44:07.099Z,157085.31
2023-02-12T20:46:39.711Z,157091.94
2023-02-12T20:49:07.522Z,157095.88
2023-02-12T20:51:35.321Z,157082.63
2023-02-12T20:54:03.591Z,157072.03
2023-02-12T20:56:34.028Z,157076.00
2023-02-12T20:59:02.809Z,157074.69
2023-02-12T21:01:38.104Z,157081.31
2023-02-12T21:04:08.370Z,157085.31
2023-02-12T21:06:36.616Z,157093.25
2023-02-12T21:09:04.493Z,157086.63
2023-02-12T21:11:31.962Z,157082.63
2023-02-12T21:14:18.467Z,157083.94
2023-02-12T21:16:47.518Z,157093.25
2023-02-12T21:19:15.817Z,157085.31
2023-02-12T21:21:45.452Z,157113.16
2023-02-12T21:24:18.977Z,157123.75
2023-02-12T21:26:46.203Z,157133.00
2023-02-12T21:29:14.409Z,157137.00
2023-02-12T21:31:45.455Z,157133.00
2023-02-12T21:34:18.522Z,157117.09
2023-02-12T21:36:46.910Z,157137.00
2023-02-12T21:39:25.129Z,157135.69
2023-02-12T21:42:02.560Z,157125.06
2023-02-12T21:44:32.233Z,157114.47
2023-02-12T21:46:59.766Z,157107.84
2023-02-12T21:49:30.198Z,157123.75
2023-02-12T21:52:02.333Z,157134.38
2023-02-12T21:54:31.307Z,157139.66
2023-02-12T21:56:59.540Z,157133.00
2023-02-12T21:59:30.694Z,157142.34
2023-02-12T22:01:59.320Z,157146.28
2023-02-12T22:04:27.616Z,157135.69
2023-02-12T22:06:55.090Z,157146.28
2023-02-12T22:09:23.197Z,157150.28
2023-02-12T22:11:52.634Z,157164.88
2023-02-12T22:14:21.690Z,157155.59
2023-02-12T22:16:49.116Z,157155.59
2023-02-12T22:19:16.860Z,157170.19
2023-02-12T22:21:44.903Z,157176.81
2023-02-12T22:24:15.038Z,157194.03
2023-02-12T22:26:43.067Z,157182.09
2023-02-12T22:29:14.084Z,157180.78
2023-02-12T22:31:42.873Z,157182.09
2023-02-12T22:34:13.547Z,157187.41
2023-02-12T22:36:41.754Z,157215.28
2023-02-12T22:39:11.511Z,157208.63
2023-02-12T22:41:38.986Z,157217.94
2023-02-12T22:44:06.632Z,157221.91
2023-02-12T22:46:35.406Z,157221.91
2023-02-12T22:49:03.196Z,157236.50
2023-02-12T22:51:32.231Z,157239.19
2023-02-12T22:54:00.660Z,157239.19
2023-02-12T22:56:28.216Z,157247.13
2023-02-12T22:58:58.017Z,157251.09
2023-02-12T23:01:25.806Z,157257.72
2023-02-12T23:03:53.971Z,157260.41
2023-02-12T23:06:27.172Z,157271.00
2023-02-12T23:08:58.415Z,157272.31
2023-02-12T23:11:28.340Z,157284.28
2023-02-12T23:13:57.005Z,157277.63
2023-02-12T23:16:24.832Z,157278.94
2023-02-12T23:18:57.134Z,157280.31
2023-02-12T23:21:26.301Z,157292.22
2023-02-12T23:23:54.582Z,157290.91
2023-02-12T23:26:22.152Z,157316.16
2023-02-12T23:28:49.809Z,157308.13
2023-02-12T23:31:17.521Z,157324.09
2023-02-12T23:33:45.085Z,157326.75
2023-02-12T23:36:12.434Z,157337.38
2023-02-12T23:38:40.285Z,157345.34
2023-02-12T23:41:07.600Z,157357.25
2023-02-12T23:43:35.250Z,157375.84
2023-02-12T23:46:02.699Z,157367.88
2023-02-12T23:48:30.744Z,157373.22
2023-02-12T23:50:58.317Z,157377.16
2023-02-12T23:53:26.270Z,157391.75
2023-02-12T23:55:53.662Z,157390.44
2023-02-12T23:58:21.308Z,157395.75
